Latest Weather Observations for Kempsey Airport

IDN60801

Issued at 8:32 pm EDT Friday 20 January 2017 (issued every 30 minutes, with the page automatically refreshed every 10 minutes)

About weather observations | Map of weather stations | Latest weather observations for NSW | Other Formats
Station Details ID: 059007 Name: KEMPSEY AIRPORT AWS Lat: -31.07 Lon: 152.77 Height: 13.0 m
Data from the previous 72 hours. | See also: Recent months at Kempsey Airport
Date/Time
EDT
Temp
°C
App
Temp
°C
Dew
Point
°C
Rel
Hum
%
Delta-T
°C
Wind Press
QNH
hPa
Press
MSL
hPa
Rain since
9am
mm
Dir  Spd
km/h
Gust
km/h
Spd
kts
Gust
kts
20/08:30pm 24.3 27.5 22.4 89 1.3 NNW 9 13 5 7 999.4 999.3 10.4
20/08:00pm 24.2 27.5 22.5 90 1.1 N 9 13 5 7 999.2 999.1 10.4
20/07:30pm 24.3 28.2 22.6 90 1.1 NNE 6 9 3 5 999.4 999.3 10.4
20/07:00pm 24.3 27.6 22.6 90 1.1 NE 9 11 5 6 999.2 999.1 10.2
20/06:30pm 24.3 26.5 22.6 90 1.1 NE 15 19 8 10 999.1 999.0 9.8
20/06:00pm 24.3 26.1 22.6 90 1.1 N 17 22 9 12 999.8 999.7 7.4
20/05:30pm 24.6 28.4 22.7 89 1.3 ESE 7 11 4 6 999.6 999.5 5.6
20/05:00pm 24.7 25.1 22.4 87 1.5 SSW 24 44 13 24 1000.4 1000.3 4.8
20/04:49pm 26.3 27.4 21.3 74 3.3 S 17 35 9 19 1000.6 1000.5 0.6
20/04:30pm 28.7 30.8 21.0 63 5.1 ESE 11 15 6 8 998.2 998.1 0.0
20/04:00pm 30.5 32.1 20.7 55 6.6 ENE 13 17 7 9 998.1 998.0 0.0
20/03:30pm 31.1 31.9 20.7 54 6.9 NE 17 28 9 15 998.1 998.0 0.0
20/03:00pm 30.9 30.8 20.8 55 6.8 NE 22 30 12 16 997.8 997.7 0.0
20/02:30pm 30.8 30.7 20.7 55 6.7 NE 22 30 12 16 998.2 998.1 0.0
20/02:00pm 31.7 32.2 20.9 52 7.3 ENE 19 28 10 15 998.7 998.6 0.0
20/01:30pm 29.9 29.4 19.9 55 6.6 ENE 22 32 12 17 999.5 999.4 0.0
20/01:00pm 31.7 32.4 19.7 49 7.9 NE 15 24 8 13 1000.5 1000.4 0.0
20/12:30pm 30.0 30.2 19.4 53 6.9 NNE 17 26 9 14 1001.1 1001.0 0.0
20/12:00pm 28.4 28.5 19.1 57 6.0 N 17 24 9 13 1002.0 1001.9 0.0
20/11:30am 27.8 28.0 19.3 60 5.5 N 17 28 9 15 1002.8 1002.7 0.0
20/11:00am 27.4 27.4 20.2 65 4.7 N 20 26 11 14 1003.6 1003.5 0.0
20/10:30am 25.2 25.9 18.9 68 4.0 N 13 19 7 10 1004.6 1004.5 0.0
20/10:00am 24.5 25.1 18.7 70 3.7 N 13 20 7 11 1005.3 1005.2 0.0
20/09:30am 24.7 25.7 18.6 69 3.9 NNW 11 19 6 10 1005.9 1005.8 0.0
20/09:00am 24.2 26.3 19.3 74 3.1 WNW 7 11 4 6 1006.4 1006.3 0.2
20/08:30am 23.1 24.5 18.6 76 2.8 NNW 9 13 5 7 1006.5 1006.4 0.2
20/08:00am 22.8 23.9 18.8 78 2.5 NNW 11 17 6 9 1006.9 1006.8 0.2
20/07:30am 21.9 23.3 18.7 82 2.0 NNW 9 13 5 7 1007.0 1006.9 0.2
20/07:00am 21.3 23.2 18.9 86 1.5 NNW 7 11 4 6 1007.3 1007.2 0.2
20/06:30am 20.7 22.0 18.5 87 1.4 NNW 9 11 5 6 1007.2 1007.1 0.2
20/06:00am 20.2 21.8 18.3 89 1.2 NNW 7 11 4 6 1007.1 1007.0 0.2
20/05:30am 20.1 21.6 18.1 88 1.2 NNW 7 9 4 5 1007.2 1007.1 0.2
20/05:00am 20.4 22.0 18.2 87 1.4 N 7 13 4 7 1007.3 1007.2 0.2
20/04:30am 20.4 22.1 18.0 86 1.5 N 6 9 3 5 1007.6 1007.5 0.2
20/04:00am 20.9 22.5 18.3 85 1.6 N 7 9 4 5 1008.0 1007.9 0.2
20/03:30am 20.7 23.7 18.5 87 1.4 CALM 0 0 0 0 1008.6 1008.5 0.2
20/03:00am 20.7 23.7 18.5 87 1.4 CALM 0 0 0 0 1009.3 1009.2 0.2
20/02:30am 20.8 23.9 18.6 87 1.4 CALM 0 0 0 0 1009.6 1009.5 0.2
20/02:00am 20.8 22.9 18.2 85 1.6 N 4 6 2 3 1010.1 1010.0 0.2
20/01:30am 20.8 22.5 18.4 86 1.5 NNW 7 9 4 5 1010.5 1010.4 0.2
20/01:00am 20.6 23.2 18.5 88 1.3 NW 2 6 1 3 1010.7 1010.6 0.2
20/12:30am 20.5 23.5 18.4 88 1.3 CALM 0 0 0 0 1011.2 1011.1 0.2
20/12:00am 20.5 22.4 18.6 89 1.2 WNW 6 9 3 5 1011.4 1011.3 0.2
 
Date/Time
EDT
Temp
°C
App
Temp
°C
Dew
Point
°C
Rel
Hum
%
Delta-T
°C
Wind Press
QNH
hPa
Press
MSL
hPa
Rain since
9am
mm
Dir  Spd
km/h
Gust
km/h
Spd
kts
Gust
kts
19/11:30pm 20.5 21.8 18.4 88 1.3 WNW 9 13 5 7 1011.7 1011.6 0.2
19/11:00pm 20.8 22.2 18.6 87 1.4 NW 9 11 5 6 1011.9 1011.8 0.2
19/10:30pm 21.0 22.5 18.0 83 1.9 NW 7 9 4 5 1012.1 1012.0 0.2
19/10:00pm 21.0 22.4 17.8 82 2.0 NNW 7 15 4 8 1012.2 1012.1 0.2
19/09:30pm 21.2 22.2 17.8 81 2.1 NNE 9 11 5 6 1012.2 1012.1 0.2
19/09:00pm 21.8 22.4 17.6 77 2.6 NE 11 15 6 8 1012.2 1012.1 0.2
19/08:30pm 22.0 23.2 17.4 75 2.8 ENE 7 13 4 7 1012.1 1012.0 0.2
19/08:00pm 22.2 24.1 17.6 75 2.8 SE 4 7 2 4 1011.9 1011.8 0.2
19/07:30pm 22.4 23.7 17.5 74 3.0 SE 7 11 4 6 1011.8 1011.7 0.2
19/07:00pm 22.3 23.7 17.7 75 2.9 E 7 13 4 7 1011.5 1011.4 0.2
19/06:30pm 21.7 22.8 17.9 79 2.4 ENE 9 15 5 8 1011.6 1011.5 0.2
19/06:00pm 22.3 24.5 18.3 78 2.5 NNE 4 9 2 5 1011.5 1011.4 0.2
19/05:30pm 22.2 23.0 18.2 78 2.5 E 11 15 6 8 1011.5 1011.4 0.2
19/05:00pm 22.0 22.9 18.4 80 2.3 SE 11 17 6 9 1011.8 1011.7 0.2
19/04:30pm 21.7 23.0 19.4 87 1.5 SSE 11 15 6 8 1012.0 1011.9 0.2
19/04:00pm 21.7 23.0 19.3 86 1.5 SSE 11 13 6 7 1012.4 1012.3 0.0
19/03:30pm 21.6 22.9 19.2 86 1.5 SE 11 17 6 9 1012.6 1012.5 0.0
19/03:00pm 21.6 22.3 18.8 84 1.8 SSE 13 19 7 10 1012.8 1012.7 0.0
19/02:30pm 23.2 23.6 18.1 73 3.2 E 13 22 7 12 1012.9 1012.8 0.0
19/02:00pm 23.4 25.7 19.8 80 2.3 NE 7 11 4 6 1013.1 1013.0 0.0
19/01:30pm 21.8 23.2 19.5 87 1.5 E 11 15 6 8 1013.5 1013.4 0.0
19/01:00pm 21.6 22.6 18.6 83 1.9 SE 11 17 6 9 1013.7 1013.6 0.0
19/12:30pm 23.5 25.5 17.9 71 3.5 E 4 9 2 5 1013.8 1013.7 0.0
19/12:00pm 22.6 23.4 18.2 76 2.8 SSE 11 17 6 9 1014.1 1014.0 0.0
19/11:30am 22.3 24.1 18.3 78 2.5 SE 6 13 3 7 1014.3 1014.2 0.0
19/11:00am 22.8 22.9 17.5 72 3.3 S 13 20 7 11 1014.4 1014.3 0.0
19/10:30am 23.1 22.8 17.3 70 3.6 S 15 20 8 11 1014.2 1014.1 0.0
19/10:00am 23.1 22.3 17.1 69 3.7 S 17 24 9 13 1014.2 1014.1 0.0
19/09:30am 24.0 23.6 18.0 69 3.8 S 17 22 9 12 1014.2 1014.1 0.0
19/09:00am 23.2 23.8 18.7 76 2.8 SSW 13 17 7 9 1014.2 1014.1 0.2
19/08:30am 21.7 21.0 18.3 81 2.1 SW 19 24 10 13 1014.2 1014.1 0.2
19/08:00am 21.3 20.9 18.1 82 2.0 SSW 17 24 9 13 1014.3 1014.2 0.2
19/07:30am 20.8 21.1 18.0 84 1.7 SSW 13 17 7 9 1014.1 1014.0 0.2
19/07:00am 20.5 21.0 18.3 87 1.4 SSW 13 17 7 9 1013.8 1013.7 0.2
19/06:30am 20.5 21.2 18.8 90 1.1 SSW 13 20 7 11 1013.3 1013.2 0.2
19/06:00am 20.6 21.3 18.9 90 1.1 S 13 17 7 9 1013.0 1012.9 0.0
19/05:30am 20.9 22.1 19.0 89 1.2 S 11 15 6 8 1012.6 1012.5 0.0
19/05:00am 21.2 21.5 18.8 86 1.5 S 15 20 8 11 1012.1 1012.0 0.0
19/04:30am 22.3 21.7 18.5 79 2.4 S 19 26 10 14 1011.7 1011.6 0.0
19/04:00am 22.4 21.8 18.4 78 2.5 SSW 19 24 10 13 1011.5 1011.4 0.0
19/03:30am 22.4 21.9 18.6 79 2.4 SSW 19 28 10 15 1011.4 1011.3 0.0
19/03:00am 22.9 22.9 18.9 78 2.5 SSW 17 26 9 14 1011.5 1011.4 0.0
19/02:30am 23.3 23.0 19.2 78 2.6 S 19 26 10 14 1011.5 1011.4 0.0
19/02:00am 23.9 23.4 19.2 75 3.0 S 20 28 11 15 1011.6 1011.5 0.0
19/01:30am 24.1 23.9 19.4 75 3.0 SSW 19 24 10 13 1011.7 1011.6 0.0
19/01:00am 24.2 23.9 19.5 75 3.0 S 20 28 11 15 1012.0 1011.9 0.0
19/12:30am 24.5 23.2 19.8 75 3.0 S 26 37 14 20 1012.5 1012.4 0.0
19/12:00am 24.8 23.5 19.8 74 3.2 S 26 43 14 23 1012.5 1012.4 0.0
 
Date/Time
EDT
Temp
°C
App
Temp
°C
Dew
Point
°C
Rel
Hum
%
Delta-T
°C
Wind Press
QNH
hPa
Press
MSL
hPa
Rain since
9am
mm
Dir  Spd
km/h
Gust
km/h
Spd
kts
Gust
kts
18/11:30pm 25.2 23.6 20.0 73 3.4 S 28 35 15 19 1012.2 1012.1 0.0
18/11:00pm 25.7 24.0 19.8 70 3.8 SSE 28 39 15 21 1011.6 1011.5 0.0
18/10:30pm 26.3 25.8 19.9 68 4.2 SSE 22 39 12 21 1011.7 1011.6 0.0
18/10:00pm 26.6 23.4 20.2 68 4.2 S 37 61 20 33 1010.6 1010.5 0.0
18/09:33pm 27.5 24.5 21.3 69 4.1 S 39 57 21 31 1010.0 1009.9 0.0
18/09:30pm 27.8 25.3 21.6 69 4.1 S 37 54 20 29 1009.9 1009.8 0.0
18/09:00pm 28.9 26.7 22.2 67 4.5 S 37 59 20 32 1008.7 1008.6 0.0
18/08:59pm 28.9 26.7 22.2 67 4.5 S 37 59 20 32 1008.7 1008.6 0.0
18/08:30pm 31.1 28.5 19.8 51 7.4 S 33 54 18 29 1006.7 1006.6 0.0
18/08:27pm 31.7 29.8 19.3 47 8.1 SSE 28 46 15 25 1006.5 1006.4 0.0
18/08:13pm 32.2 33.7 18.0 42 9.1 E 7 33 4 18 1005.6 1005.5 0.0
18/08:00pm 33.5 34.6 17.2 37 10.5 ENE 7 11 4 6 1004.4 1004.3 0.0
18/07:30pm 35.1 35.4 15.9 31 12.1 NE 9 13 5 7 1003.9 1003.8 0.0
18/07:00pm 37.3 36.3 14.6 26 14.2 N 13 20 7 11 1003.3 1003.2 0.0
18/06:30pm 38.6 37.2 14.4 24 15.1 N 15 20 8 11 1003.1 1003.0 0.0
18/06:00pm 38.7 36.8 15.1 24 14.9 N 19 26 10 14 1003.1 1003.0 0.0
18/05:30pm 39.5 37.1 13.8 22 16.0 NNW 19 28 10 15 1003.1 1003.0 0.0
18/05:00pm 40.1 37.5 15.0 23 15.9 NNW 22 32 12 17 1003.4 1003.3 0.0
18/04:30pm 39.2 36.5 13.6 22 15.9 NW 20 33 11 18 1003.9 1003.8 0.0
18/04:00pm 40.8 39.3 14.2 21 16.8 W 15 28 8 15 1004.3 1004.2 0.0
18/03:30pm 39.6 38.3 15.9 25 15.2 SW 17 24 9 13 1004.7 1004.6 0.0
18/03:00pm 39.4 35.3 13.7 21 16.0 WSW 28 35 15 19 1004.8 1004.7 0.0
18/02:30pm 39.7 36.4 14.0 22 16.0 WSW 24 33 13 18 1004.9 1004.8 0.0
18/02:00pm 41.0 39.1 15.1 22 16.5 WSW 19 30 10 16 1005.1 1005.0 0.0
18/01:30pm 40.5 39.8 15.3 22 16.0 SW 13 35 7 19 1005.4 1005.3 0.0
18/01:00pm 40.9 39.9 15.7 23 16.2 W 15 28 8 15 1005.9 1005.8 0.0
18/12:30pm 40.4 39.4 16.6 25 15.4 W 17 28 9 15 1006.4 1006.3 0.0
18/12:00pm 39.9 38.6 17.3 26 14.8 WSW 20 32 11 17 1006.6 1006.5 0.0
18/11:30am 39.1 37.0 16.1 26 14.7 NW 22 32 12 17 1006.9 1006.8 0.0
18/11:00am 38.0 34.9 15.7 26 14.2 NW 26 35 14 19 1007.2 1007.1 0.0
18/10:30am 37.0 32.9 16.0 28 13.4 NW 32 43 17 23 1007.4 1007.3 0.0
18/10:00am 36.5 32.5 16.1 29 13.0 NW 32 44 17 24 1007.6 1007.5 0.0
18/09:30am 35.6 33.0 16.8 32 12.0 NW 26 39 14 21 1007.8 1007.7 0.0
18/09:00am 34.2 31.5 16.5 34 11.2 NW 26 39 14 21 1008.1 1008.0 0.0
18/08:30am 33.0 30.4 16.8 38 10.3 NW 26 37 14 20 1008.4 1008.3 0.0
18/08:00am 31.4 29.9 17.7 44 8.8 NW 22 32 12 17 1008.4 1008.3 0.0
18/07:30am 27.7 28.8 20.5 65 4.7 NW 15 20 8 11 1008.6 1008.5 0.0
18/07:00am 22.9 27.4 21.5 92 0.9 CALM 0 0 0 0 1008.6 1008.5 0.0
18/06:30am 21.3 25.1 20.1 93 0.8 CALM 0 0 0 0 1008.6 1008.5 0.0
18/06:00am 20.3 23.6 19.0 92 0.8 CALM 0 0 0 0 1008.3 1008.2 0.0
18/05:30am 19.8 22.8 18.5 92 0.8 CALM 0 0 0 0 1008.2 1008.1 0.0
18/05:00am 20.4 23.7 19.1 92 0.8 CALM 0 0 0 0 1008.1 1008.0 0.0
18/04:30am 20.2 23.2 18.5 90 1.1 CALM 0 0 0 0 1008.1 1008.0 0.0
18/04:00am 21.0 24.6 19.7 92 0.8 CALM 0 0 0 0 1008.1 1008.0 0.0
18/03:30am 21.1 24.7 19.7 92 0.9 CALM 0 0 0 0 1008.3 1008.2 0.0
18/03:00am 21.1 24.6 19.6 91 1.0 CALM 0 0 0 0 1008.8 1008.7 0.0
18/02:30am 21.3 24.9 19.8 91 1.0 CALM 0 0 0 0 1009.1 1009.0 0.0
18/02:00am 21.6 25.4 20.1 91 1.0 CALM 0 0 0 0 1009.4 1009.3 0.0
18/01:30am 21.5 25.2 20.0 91 1.0 CALM 0 0 0 0 1009.8 1009.7 0.0
18/01:00am 21.6 25.3 19.9 90 1.1 CALM 0 0 0 0 1010.1 1010.0 0.0
18/12:30am 22.0 25.9 20.3 90 1.1 CALM 0 0 0 0 1010.5 1010.4 0.0
18/12:00am 21.9 25.5 19.8 88 1.3 CALM 0 0 0 0 1011.2 1011.1 0.0
 
Date/Time
EDT
Temp
°C
App
Temp
°C
Dew
Point
°C
Rel
Hum
%
Delta-T
°C
Wind Press
QNH
hPa
Press
MSL
hPa
Rain since
9am
mm
Dir  Spd
km/h
Gust
km/h
Spd
kts
Gust
kts
17/11:30pm 22.6 26.5 20.3 87 1.5 CALM 0 0 0 0 1011.7 1011.6 0.0
17/11:00pm 22.7 26.6 20.4 87 1.5 CALM 0 0 0 0 1012.0 1011.9 0.0
17/10:30pm 23.4 27.6 20.9 86 1.6 CALM 0 0 0 0 1012.1 1012.0 0.0
17/10:00pm 23.4 27.6 20.9 86 1.6 CALM 0 0 0 0 1012.2 1012.1 0.0
17/09:30pm 23.5 27.3 20.2 82 2.1 CALM 0 6 0 3 1012.1 1012.0 0.0
17/09:00pm 24.6 27.0 20.9 80 2.4 ESE 9 11 5 6 1012.0 1011.9 0.0

Other Formats:

Comma delimited format used in spreadsheet applications
http://www.bom.gov.au/fwo/IDN60801/IDN60801.94785.axf

JavaScript Object Notation format (JSON) in row-major order
http://www.bom.gov.au/fwo/IDN60801/IDN60801.94785.json